sensor_id;sensor_type;location;lat;lon;timestamp;P1;durP1;ratioP1;P2;durP2;ratioP2
16640;SDS011;8434;47.990;7.880;2022-09-21T00:00:03;4.33;;;2.30;;
16640;SDS011;8434;47.990;7.880;2022-09-21T00:02:48;6.27;;;4.10;;
16640;SDS011;8434;47.990;7.880;2022-09-21T00:05:33;6.43;;;2.83;;
16640;SDS011;8434;47.990;7.880;2022-09-21T00:08:20;4.27;;;3.00;;
16640;SDS011;8434;47.990;7.880;2022-09-21T00:11:05;4.93;;;1.60;;
16640;SDS011;8434;47.990;7.880;2022-09-21T00:13:50;4.60;;;2.33;;
16640;SDS011;8434;47.990;7.880;2022-09-21T00:16:37;3.47;;;2.63;;
16640;SDS011;8434;47.990;7.880;2022-09-21T00:19:22;2.83;;;1.90;;
16640;SDS011;8434;47.990;7.880;2022-09-21T00:22:07;3.73;;;1.70;;
16640;SDS011;8434;47.990;7.880;2022-09-21T00:24:53;3.47;;;1.70;;
16640;SDS011;8434;47.990;7.880;2022-09-21T00:27:38;4.00;;;1.77;;
16640;SDS011;8434;47.990;7.880;2022-09-21T00:30:23;2.13;;;1.60;;
16640;SDS011;8434;47.990;7.880;2022-09-21T00:33:08;7.40;;;1.70;;
16640;SDS011;8434;47.990;7.880;2022-09-21T00:35:53;1.83;;;1.43;;
16640;SDS011;8434;47.990;7.880;2022-09-21T00:38:38;2.00;;;1.80;;
16640;SDS011;8434;47.990;7.880;2022-09-21T00:41:25;5.50;;;1.90;;
16640;SDS011;8434;47.990;7.880;2022-09-21T00:44:23;3.33;;;1.50;;
16640;SDS011;8434;47.990;7.880;2022-09-21T00:47:10;3.87;;;1.80;;
16640;SDS011;8434;47.990;7.880;2022-09-21T00:49:56;2.00;;;1.60;;
16640;SDS011;8434;47.990;7.880;2022-09-21T00:52:42;3.40;;;1.80;;
16640;SDS011;8434;47.990;7.880;2022-09-21T00:55:29;2.77;;;1.60;;
16640;SDS011;8434;47.990;7.880;2022-09-21T00:58:18;3.30;;;1.50;;
16640;SDS011;8434;47.990;7.880;2022-09-21T01:01:06;2.07;;;1.50;;
16640;SDS011;8434;47.990;7.880;2022-09-21T01:03:51;3.33;;;1.70;;
16640;SDS011;8434;47.990;7.880;2022-09-21T01:06:39;1.40;;;1.20;;
16640;SDS011;8434;47.990;7.880;2022-09-21T01:09:25;3.30;;;1.70;;
16640;SDS011;8434;47.990;7.880;2022-09-21T01:12:14;2.77;;;1.80;;
16640;SDS011;8434;47.990;7.880;2022-09-21T01:15:07;3.37;;;1.77;;
16640;SDS011;8434;47.990;7.880;2022-09-21T01:17:57;1.60;;;1.50;;
16640;SDS011;8434;47.990;7.880;2022-09-21T01:24:09;1.90;;;1.70;;
16640;SDS011;8434;47.990;7.880;2022-09-21T01:27:14;2.60;;;1.67;;
16640;SDS011;8434;47.990;7.880;2022-09-21T01:30:07;2.50;;;1.63;;
16640;SDS011;8434;47.990;7.880;2022-09-21T01:32:55;2.37;;;1.60;;
16640;SDS011;8434;47.990;7.880;2022-09-21T01:35:42;2.67;;;1.60;;
16640;SDS011;8434;47.990;7.880;2022-09-21T01:38:29;4.13;;;1.83;;
16640;SDS011;8434;47.990;7.880;2022-09-21T01:41:18;3.10;;;1.83;;
16640;SDS011;8434;47.990;7.880;2022-09-21T01:44:06;4.17;;;1.70;;
16640;SDS011;8434;47.990;7.880;2022-09-21T01:46:54;2.37;;;1.70;;
16640;SDS011;8434;47.990;7.880;2022-09-21T01:49:40;2.30;;;1.60;;
16640;SDS011;8434;47.990;7.880;2022-09-21T01:52:28;1.83;;;1.60;;
16640;SDS011;8434;47.990;7.880;2022-09-21T01:55:16;2.33;;;1.50;;
16640;SDS011;8434;47.990;7.880;2022-09-21T01:58:03;4.63;;;1.80;;
16640;SDS011;8434;47.990;7.880;2022-09-21T02:00:51;3.47;;;1.87;;
16640;SDS011;8434;47.990;7.880;2022-09-21T02:03:40;4.57;;;1.93;;
16640;SDS011;8434;47.990;7.880;2022-09-21T02:06:27;2.37;;;1.83;;
16640;SDS011;8434;47.990;7.880;2022-09-21T02:09:12;3.07;;;1.60;;
16640;SDS011;8434;47.990;7.880;2022-09-21T02:11:57;5.80;;;1.97;;
16640;SDS011;8434;47.990;7.880;2022-09-21T02:14:44;4.87;;;1.90;;
16640;SDS011;8434;47.990;7.880;2022-09-21T02:17:31;2.10;;;1.90;;
16640;SDS011;8434;47.990;7.880;2022-09-21T02:20:21;5.17;;;2.30;;
16640;SDS011;8434;47.990;7.880;2022-09-21T02:23:10;4.97;;;2.00;;
16640;SDS011;8434;47.990;7.880;2022-09-21T02:25:56;2.30;;;1.80;;
16640;SDS011;8434;47.990;7.880;2022-09-21T02:28:45;1.90;;;1.60;;
16640;SDS011;8434;47.990;7.880;2022-09-21T02:31:32;2.87;;;1.67;;
16640;SDS011;8434;47.990;7.880;2022-09-21T02:34:21;3.03;;;1.90;;
16640;SDS011;8434;47.990;7.880;2022-09-21T02:37:10;1.97;;;1.80;;
16640;SDS011;8434;47.990;7.880;2022-09-21T02:39:58;2.07;;;1.57;;
16640;SDS011;8434;47.990;7.880;2022-09-21T02:42:44;1.77;;;1.47;;
16640;SDS011;8434;47.990;7.880;2022-09-21T02:45:32;3.23;;;2.10;;
16640;SDS011;8434;47.990;7.880;2022-09-21T02:48:22;2.10;;;1.70;;
16640;SDS011;8434;47.990;7.880;2022-09-21T02:51:08;3.77;;;1.77;;
16640;SDS011;8434;47.990;7.880;2022-09-21T02:53:55;3.40;;;1.63;;
16640;SDS011;8434;47.990;7.880;2022-09-21T02:56:40;3.53;;;1.63;;
16640;SDS011;8434;47.990;7.880;2022-09-21T02:59:26;3.43;;;2.10;;
16640;SDS011;8434;47.990;7.880;2022-09-21T03:02:11;3.23;;;2.10;;
16640;SDS011;8434;47.990;7.880;2022-09-21T03:04:57;5.23;;;2.90;;
16640;SDS011;8434;47.990;7.880;2022-09-21T03:07:42;2.50;;;1.90;;
16640;SDS011;8434;47.990;7.880;2022-09-21T03:10:28;3.67;;;2.60;;
16640;SDS011;8434;47.990;7.880;2022-09-21T03:13:13;5.63;;;2.10;;
16640;SDS011;8434;47.990;7.880;2022-09-21T03:15:58;3.30;;;2.00;;
16640;SDS011;8434;47.990;7.880;2022-09-21T03:18:43;3.20;;;1.97;;
16640;SDS011;8434;47.990;7.880;2022-09-21T03:21:28;3.17;;;2.43;;
16640;SDS011;8434;47.990;7.880;2022-09-21T03:24:13;3.37;;;2.13;;
16640;SDS011;8434;47.990;7.880;2022-09-21T03:27:19;4.07;;;2.33;;
16640;SDS011;8434;47.990;7.880;2022-09-21T03:30:05;4.57;;;2.17;;
16640;SDS011;8434;47.990;7.880;2022-09-21T03:32:52;4.47;;;1.90;;
16640;SDS011;8434;47.990;7.880;2022-09-21T03:35:37;4.27;;;2.00;;
16640;SDS011;8434;47.990;7.880;2022-09-21T03:38:22;2.80;;;2.30;;
16640;SDS011;8434;47.990;7.880;2022-09-21T03:41:07;11.43;;;2.80;;
16640;SDS011;8434;47.990;7.880;2022-09-21T03:43:54;5.13;;;2.23;;
16640;SDS011;8434;47.990;7.880;2022-09-21T03:46:38;2.97;;;2.30;;
16640;SDS011;8434;47.990;7.880;2022-09-21T03:49:24;5.17;;;2.73;;
16640;SDS011;8434;47.990;7.880;2022-09-21T03:52:09;4.00;;;2.00;;
16640;SDS011;8434;47.990;7.880;2022-09-21T03:54:54;3.87;;;2.47;;
16640;SDS011;8434;47.990;7.880;2022-09-21T03:57:38;5.53;;;2.63;;
16640;SDS011;8434;47.990;7.880;2022-09-21T04:00:25;4.03;;;3.00;;
16640;SDS011;8434;47.990;7.880;2022-09-21T04:03:10;2.90;;;2.10;;
16640;SDS011;8434;47.990;7.880;2022-09-21T04:05:55;3.37;;;2.50;;
16640;SDS011;8434;47.990;7.880;2022-09-21T04:08:40;2.87;;;2.10;;
16640;SDS011;8434;47.990;7.880;2022-09-21T04:11:25;6.33;;;2.37;;
16640;SDS011;8434;47.990;7.880;2022-09-21T04:14:13;4.50;;;2.40;;
16640;SDS011;8434;47.990;7.880;2022-09-21T04:16:59;5.77;;;3.00;;
16640;SDS011;8434;47.990;7.880;2022-09-21T04:19:44;4.30;;;2.43;;
16640;SDS011;8434;47.990;7.880;2022-09-21T04:22:30;5.17;;;2.80;;
16640;SDS011;8434;47.990;7.880;2022-09-21T04:25:15;4.80;;;2.93;;
16640;SDS011;8434;47.990;7.880;2022-09-21T04:28:00;4.43;;;2.63;;
16640;SDS011;8434;47.990;7.880;2022-09-21T04:30:45;3.13;;;2.73;;
16640;SDS011;8434;47.990;7.880;2022-09-21T04:33:32;3.53;;;2.60;;
16640;SDS011;8434;47.990;7.880;2022-09-21T04:36:17;7.40;;;2.77;;
16640;SDS011;8434;47.990;7.880;2022-09-21T04:39:02;4.77;;;2.93;;
16640;SDS011;8434;47.990;7.880;2022-09-21T04:41:50;4.93;;;2.77;;
16640;SDS011;8434;47.990;7.880;2022-09-21T04:44:35;6.60;;;2.67;;
16640;SDS011;8434;47.990;7.880;2022-09-21T04:47:21;3.27;;;2.77;;
16640;SDS011;8434;47.990;7.880;2022-09-21T04:50:08;9.17;;;3.13;;
16640;SDS011;8434;47.990;7.880;2022-09-21T04:52:53;4.10;;;2.30;;
16640;SDS011;8434;47.990;7.880;2022-09-21T04:55:39;4.87;;;2.50;;
16640;SDS011;8434;47.990;7.880;2022-09-21T04:58:23;3.43;;;2.33;;
16640;SDS011;8434;47.990;7.880;2022-09-21T05:01:09;4.33;;;2.93;;
16640;SDS011;8434;47.990;7.880;2022-09-21T05:03:54;6.53;;;3.07;;
16640;SDS011;8434;47.990;7.880;2022-09-21T05:06:42;5.90;;;3.03;;
16640;SDS011;8434;47.990;7.880;2022-09-21T05:09:27;4.27;;;3.40;;
16640;SDS011;8434;47.990;7.880;2022-09-21T05:12:30;6.03;;;3.63;;
16640;SDS011;8434;47.990;7.880;2022-09-21T05:15:15;5.33;;;3.27;;
16640;SDS011;8434;47.990;7.880;2022-09-21T05:18:01;5.13;;;3.80;;
16640;SDS011;8434;47.990;7.880;2022-09-21T05:20:52;3.40;;;2.97;;
16640;SDS011;8434;47.990;7.880;2022-09-21T05:23:38;6.30;;;3.57;;
16640;SDS011;8434;47.990;7.880;2022-09-21T05:26:23;3.83;;;2.83;;
16640;SDS011;8434;47.990;7.880;2022-09-21T05:29:08;3.37;;;2.80;;
16640;SDS011;8434;47.990;7.880;2022-09-21T05:31:54;7.47;;;3.50;;
16640;SDS011;8434;47.990;7.880;2022-09-21T05:34:46;6.90;;;3.33;;
16640;SDS011;8434;47.990;7.880;2022-09-21T05:37:36;6.67;;;3.30;;
16640;SDS011;8434;47.990;7.880;2022-09-21T05:40:24;5.60;;;3.40;;
16640;SDS011;8434;47.990;7.880;2022-09-21T05:43:09;4.30;;;3.07;;
16640;SDS011;8434;47.990;7.880;2022-09-21T05:45:56;4.80;;;2.97;;
16640;SDS011;8434;47.990;7.880;2022-09-21T05:48:42;6.67;;;3.53;;
16640;SDS011;8434;47.990;7.880;2022-09-21T05:51:33;7.10;;;3.47;;
16640;SDS011;8434;47.990;7.880;2022-09-21T05:54:22;4.60;;;3.50;;
16640;SDS011;8434;47.990;7.880;2022-09-21T05:57:12;4.00;;;2.70;;
16640;SDS011;8434;47.990;7.880;2022-09-21T06:00:00;3.53;;;2.57;;
16640;SDS011;8434;47.990;7.880;2022-09-21T06:02:53;4.97;;;2.67;;
16640;SDS011;8434;47.990;7.880;2022-09-21T06:05:41;4.27;;;2.30;;
16640;SDS011;8434;47.990;7.880;2022-09-21T06:08:26;4.63;;;3.00;;
16640;SDS011;8434;47.990;7.880;2022-09-21T06:11:12;4.67;;;2.10;;
16640;SDS011;8434;47.990;7.880;2022-09-21T06:13:58;6.13;;;2.43;;
16640;SDS011;8434;47.990;7.880;2022-09-21T06:16:43;3.23;;;2.57;;
16640;SDS011;8434;47.990;7.880;2022-09-21T06:19:28;3.93;;;2.50;;
16640;SDS011;8434;47.990;7.880;2022-09-21T06:22:13;3.67;;;2.30;;
16640;SDS011;8434;47.990;7.880;2022-09-21T06:24:58;3.40;;;1.60;;
16640;SDS011;8434;47.990;7.880;2022-09-21T06:27:43;2.43;;;2.00;;
16640;SDS011;8434;47.990;7.880;2022-09-21T06:30:29;4.23;;;2.07;;
16640;SDS011;8434;47.990;7.880;2022-09-21T06:33:19;3.00;;;2.10;;
16640;SDS011;8434;47.990;7.880;2022-09-21T06:36:06;5.00;;;2.73;;
16640;SDS011;8434;47.990;7.880;2022-09-21T06:38:51;2.43;;;2.07;;
16640;SDS011;8434;47.990;7.880;2022-09-21T06:41:36;4.83;;;2.30;;
16640;SDS011;8434;47.990;7.880;2022-09-21T06:44:21;3.90;;;2.20;;
16640;SDS011;8434;47.990;7.880;2022-09-21T06:47:09;3.47;;;2.50;;
16640;SDS011;8434;47.990;7.880;2022-09-21T06:49:54;2.57;;;2.27;;
16640;SDS011;8434;47.990;7.880;2022-09-21T06:52:39;2.50;;;1.77;;
16640;SDS011;8434;47.990;7.880;2022-09-21T06:55:24;5.70;;;2.33;;
16640;SDS011;8434;47.990;7.880;2022-09-21T06:58:10;4.97;;;2.23;;
16640;SDS011;8434;47.990;7.880;2022-09-21T07:00:55;3.47;;;2.53;;
16640;SDS011;8434;47.990;7.880;2022-09-21T07:03:41;2.97;;;2.40;;
16640;SDS011;8434;47.990;7.880;2022-09-21T07:06:26;4.00;;;2.93;;
16640;SDS011;8434;47.990;7.880;2022-09-21T07:09:12;5.18;;;2.80;;
16640;SDS011;8434;47.990;7.880;2022-09-21T07:11:57;4.65;;;3.20;;
16640;SDS011;8434;47.990;7.880;2022-09-21T07:14:42;4.50;;;2.80;;
16640;SDS011;8434;47.990;7.880;2022-09-21T07:17:30;4.10;;;2.78;;
16640;SDS011;8434;47.990;7.880;2022-09-21T07:20:16;4.65;;;2.80;;
16640;SDS011;8434;47.990;7.880;2022-09-21T07:23:08;3.80;;;2.40;;
16640;SDS011;8434;47.990;7.880;2022-09-21T07:25:53;6.18;;;3.20;;
16640;SDS011;8434;47.990;7.880;2022-09-21T07:28:38;3.40;;;2.80;;
16640;SDS011;8434;47.990;7.880;2022-09-21T07:31:23;4.90;;;2.80;;
16640;SDS011;8434;47.990;7.880;2022-09-21T07:34:14;5.07;;;2.70;;
16640;SDS011;8434;47.990;7.880;2022-09-21T07:37:10;3.22;;;2.60;;
16640;SDS011;8434;47.990;7.880;2022-09-21T07:39:56;5.43;;;2.67;;
16640;SDS011;8434;47.990;7.880;2022-09-21T07:42:41;4.00;;;2.33;;
16640;SDS011;8434;47.990;7.880;2022-09-21T07:45:27;4.10;;;2.42;;
16640;SDS011;8434;47.990;7.880;2022-09-21T07:48:12;3.38;;;2.60;;
16640;SDS011;8434;47.990;7.880;2022-09-21T07:51:01;3.65;;;2.28;;
16640;SDS011;8434;47.990;7.880;2022-09-21T07:53:52;6.28;;;2.50;;
16640;SDS011;8434;47.990;7.880;2022-09-21T07:56:38;4.10;;;2.47;;
16640;SDS011;8434;47.990;7.880;2022-09-21T07:59:24;3.45;;;2.40;;
16640;SDS011;8434;47.990;7.880;2022-09-21T08:02:09;2.83;;;2.55;;
16640;SDS011;8434;47.990;7.880;2022-09-21T08:04:54;3.67;;;2.30;;
16640;SDS011;8434;47.990;7.880;2022-09-21T08:07:39;3.63;;;2.10;;
16640;SDS011;8434;47.990;7.880;2022-09-21T08:10:25;3.63;;;2.65;;
16640;SDS011;8434;47.990;7.880;2022-09-21T08:13:12;4.78;;;2.90;;
16640;SDS011;8434;47.990;7.880;2022-09-21T08:15:57;5.10;;;2.95;;
16640;SDS011;8434;47.990;7.880;2022-09-21T08:18:42;4.15;;;2.47;;
16640;SDS011;8434;47.990;7.880;2022-09-21T08:21:27;3.83;;;2.78;;
16640;SDS011;8434;47.990;7.880;2022-09-21T08:24:12;5.05;;;2.70;;
16640;SDS011;8434;47.990;7.880;2022-09-21T08:26:58;6.90;;;3.35;;
16640;SDS011;8434;47.990;7.880;2022-09-21T08:29:43;3.90;;;2.83;;
16640;SDS011;8434;47.990;7.880;2022-09-21T08:32:28;4.10;;;2.30;;
16640;SDS011;8434;47.990;7.880;2022-09-21T08:35:13;3.63;;;2.40;;
16640;SDS011;8434;47.990;7.880;2022-09-21T08:37:58;4.80;;;3.00;;
16640;SDS011;8434;47.990;7.880;2022-09-21T08:40:43;4.22;;;2.63;;
16640;SDS011;8434;47.990;7.880;2022-09-21T08:43:30;3.67;;;2.50;;
16640;SDS011;8434;47.990;7.880;2022-09-21T08:46:19;2.90;;;2.22;;
16640;SDS011;8434;47.990;7.880;2022-09-21T08:49:05;5.38;;;2.38;;
16640;SDS011;8434;47.990;7.880;2022-09-21T08:51:54;5.32;;;2.30;;
16640;SDS011;8434;47.990;7.880;2022-09-21T08:54:41;4.78;;;2.22;;
16640;SDS011;8434;47.990;7.880;2022-09-21T08:57:28;3.50;;;2.58;;
16640;SDS011;8434;47.990;7.880;2022-09-21T09:00:16;3.15;;;2.15;;
16640;SDS011;8434;47.990;7.880;2022-09-21T09:03:24;3.60;;;2.20;;
16640;SDS011;8434;47.990;7.880;2022-09-21T09:06:12;3.25;;;2.80;;
16640;SDS011;8434;47.990;7.880;2022-09-21T09:12:05;2.58;;;2.38;;
16640;SDS011;8434;47.990;7.880;2022-09-21T09:14:56;2.22;;;2.03;;
16640;SDS011;8434;47.990;7.880;2022-09-21T09:17:48;3.38;;;2.10;;
16640;SDS011;8434;47.990;7.880;2022-09-21T09:20:38;3.25;;;2.45;;
16640;SDS011;8434;47.990;7.880;2022-09-21T09:23:25;3.10;;;2.40;;
16640;SDS011;8434;47.990;7.880;2022-09-21T09:26:13;3.97;;;2.22;;
16640;SDS011;8434;47.990;7.880;2022-09-21T09:28:59;2.83;;;2.30;;
16640;SDS011;8434;47.990;7.880;2022-09-21T09:31:45;2.42;;;2.03;;
16640;SDS011;8434;47.990;7.880;2022-09-21T09:34:33;4.38;;;2.30;;
16640;SDS011;8434;47.990;7.880;2022-09-21T09:37:22;3.75;;;1.90;;
16640;SDS011;8434;47.990;7.880;2022-09-21T09:40:10;3.15;;;1.98;;
16640;SDS011;8434;47.990;7.880;2022-09-21T09:42:57;2.70;;;2.00;;
16640;SDS011;8434;47.990;7.880;2022-09-21T09:45:49;5.22;;;2.22;;
16640;SDS011;8434;47.990;7.880;2022-09-21T09:48:39;4.03;;;2.00;;
16640;SDS011;8434;47.990;7.880;2022-09-21T09:51:28;3.22;;;1.95;;
16640;SDS011;8434;47.990;7.880;2022-09-21T09:54:17;2.45;;;2.10;;
16640;SDS011;8434;47.990;7.880;2022-09-21T09:57:03;4.20;;;2.13;;
16640;SDS011;8434;47.990;7.880;2022-09-21T09:59:50;4.45;;;1.98;;
16640;SDS011;8434;47.990;7.880;2022-09-21T10:02:44;5.28;;;2.20;;
16640;SDS011;8434;47.990;7.880;2022-09-21T10:05:30;2.75;;;1.50;;
16640;SDS011;8434;47.990;7.880;2022-09-21T10:11:34;4.88;;;2.15;;
16640;SDS011;8434;47.990;7.880;2022-09-21T10:14:21;2.70;;;1.52;;
16640;SDS011;8434;47.990;7.880;2022-09-21T10:17:06;2.33;;;1.52;;
16640;SDS011;8434;47.990;7.880;2022-09-21T10:19:57;2.13;;;1.30;;
16640;SDS011;8434;47.990;7.880;2022-09-21T10:22:43;1.90;;;1.45;;
16640;SDS011;8434;47.990;7.880;2022-09-21T10:25:29;1.13;;;0.95;;
16640;SDS011;8434;47.990;7.880;2022-09-21T10:28:16;2.05;;;1.67;;
16640;SDS011;8434;47.990;7.880;2022-09-21T10:34:11;2.50;;;1.05;;
16640;SDS011;8434;47.990;7.880;2022-09-21T10:36:57;2.40;;;1.10;;
16640;SDS011;8434;47.990;7.880;2022-09-21T10:39:44;2.45;;;0.90;;
16640;SDS011;8434;47.990;7.880;2022-09-21T10:42:30;2.25;;;1.13;;
16640;SDS011;8434;47.990;7.880;2022-09-21T10:45:19;3.72;;;1.75;;
16640;SDS011;8434;47.990;7.880;2022-09-21T10:48:08;1.83;;;1.10;;
16640;SDS011;8434;47.990;7.880;2022-09-21T10:50:54;1.30;;;1.10;;
16640;SDS011;8434;47.990;7.880;2022-09-21T10:53:40;1.50;;;1.07;;
16640;SDS011;8434;47.990;7.880;2022-09-21T10:56:31;1.17;;;1.07;;
16640;SDS011;8434;47.990;7.880;2022-09-21T10:59:19;3.93;;;1.23;;
16640;SDS011;8434;47.990;7.880;2022-09-21T11:02:22;1.50;;;1.10;;
16640;SDS011;8434;47.990;7.880;2022-09-21T11:05:10;2.20;;;1.00;;
16640;SDS011;8434;47.990;7.880;2022-09-21T11:07:57;5.60;;;1.33;;
16640;SDS011;8434;47.990;7.880;2022-09-21T11:10:45;1.83;;;1.10;;
16640;SDS011;8434;47.990;7.880;2022-09-21T11:13:34;2.73;;;1.27;;
16640;SDS011;8434;47.990;7.880;2022-09-21T11:16:20;2.00;;;1.20;;
16640;SDS011;8434;47.990;7.880;2022-09-21T11:19:13;1.53;;;0.93;;
16640;SDS011;8434;47.990;7.880;2022-09-21T11:22:04;1.77;;;1.00;;
16640;SDS011;8434;47.990;7.880;2022-09-21T11:24:51;1.60;;;1.00;;
16640;SDS011;8434;47.990;7.880;2022-09-21T11:27:38;2.27;;;1.30;;
16640;SDS011;8434;47.990;7.880;2022-09-21T11:30:29;3.73;;;1.00;;
16640;SDS011;8434;47.990;7.880;2022-09-21T11:33:20;1.57;;;0.97;;
16640;SDS011;8434;47.990;7.880;2022-09-21T11:36:12;2.67;;;0.90;;
16640;SDS011;8434;47.990;7.880;2022-09-21T11:39:01;1.37;;;1.20;;
16640;SDS011;8434;47.990;7.880;2022-09-21T11:41:52;1.03;;;0.90;;
16640;SDS011;8434;47.990;7.880;2022-09-21T11:44:42;2.03;;;0.87;;
16640;SDS011;8434;47.990;7.880;2022-09-21T11:47:35;2.00;;;1.00;;
16640;SDS011;8434;47.990;7.880;2022-09-21T11:50:32;1.10;;;0.90;;
16640;SDS011;8434;47.990;7.880;2022-09-21T11:53:27;3.33;;;1.30;;
16640;SDS011;8434;47.990;7.880;2022-09-21T11:56:26;2.30;;;0.80;;
16640;SDS011;8434;47.990;7.880;2022-09-21T11:59:22;2.60;;;1.03;;
16640;SDS011;8434;47.990;7.880;2022-09-21T12:02:25;1.57;;;0.93;;
16640;SDS011;8434;47.990;7.880;2022-09-21T12:05:14;2.77;;;1.10;;
16640;SDS011;8434;47.990;7.880;2022-09-21T12:08:07;1.03;;;0.80;;
16640;SDS011;8434;47.990;7.880;2022-09-21T12:10:57;1.63;;;1.00;;
16640;SDS011;8434;47.990;7.880;2022-09-21T12:13:47;0.90;;;0.77;;
16640;SDS011;8434;47.990;7.880;2022-09-21T12:16:37;1.30;;;0.80;;
16640;SDS011;8434;47.990;7.880;2022-09-21T12:19:33;1.10;;;0.70;;
16640;SDS011;8434;47.990;7.880;2022-09-21T12:22:21;1.73;;;0.70;;
16640;SDS011;8434;47.990;7.880;2022-09-21T12:25:11;1.47;;;0.90;;
16640;SDS011;8434;47.990;7.880;2022-09-21T12:28:02;1.00;;;0.70;;
16640;SDS011;8434;47.990;7.880;2022-09-21T12:30:50;0.90;;;0.77;;
16640;SDS011;8434;47.990;7.880;2022-09-21T12:33:38;1.47;;;0.60;;
16640;SDS011;8434;47.990;7.880;2022-09-21T12:36:27;1.60;;;0.70;;
16640;SDS011;8434;47.990;7.880;2022-09-21T12:39:14;4.87;;;0.70;;
16640;SDS011;8434;47.990;7.880;2022-09-21T12:42:03;1.73;;;0.73;;
16640;SDS011;8434;47.990;7.880;2022-09-21T12:44:53;1.73;;;0.87;;
16640;SDS011;8434;47.990;7.880;2022-09-21T12:47:44;0.80;;;0.80;;
16640;SDS011;8434;47.990;7.880;2022-09-21T12:50:32;1.93;;;1.00;;
16640;SDS011;8434;47.990;7.880;2022-09-21T12:53:19;1.37;;;0.70;;
16640;SDS011;8434;47.990;7.880;2022-09-21T12:56:08;0.60;;;0.60;;
16640;SDS011;8434;47.990;7.880;2022-09-21T12:59:02;1.13;;;0.70;;
16640;SDS011;8434;47.990;7.880;2022-09-21T13:01:51;1.67;;;0.70;;
16640;SDS011;8434;47.990;7.880;2022-09-21T13:04:39;1.33;;;0.73;;
16640;SDS011;8434;47.990;7.880;2022-09-21T13:07:31;0.73;;;0.70;;
16640;SDS011;8434;47.990;7.880;2022-09-21T13:10:33;1.70;;;0.70;;
16640;SDS011;8434;47.990;7.880;2022-09-21T13:13:23;0.80;;;0.50;;
16640;SDS011;8434;47.990;7.880;2022-09-21T13:16:20;1.37;;;0.73;;
16640;SDS011;8434;47.990;7.880;2022-09-21T13:19:15;1.20;;;0.80;;
16640;SDS011;8434;47.990;7.880;2022-09-21T13:22:11;2.17;;;0.70;;
16640;SDS011;8434;47.990;7.880;2022-09-21T13:24:59;0.60;;;0.60;;
16640;SDS011;8434;47.990;7.880;2022-09-21T13:27:56;2.27;;;0.70;;
16640;SDS011;8434;47.990;7.880;2022-09-21T13:30:43;0.60;;;0.60;;
16640;SDS011;8434;47.990;7.880;2022-09-21T13:33:36;2.23;;;0.80;;
16640;SDS011;8434;47.990;7.880;2022-09-21T13:36:30;0.73;;;0.60;;
16640;SDS011;8434;47.990;7.880;2022-09-21T13:39:17;1.40;;;0.90;;
16640;SDS011;8434;47.990;7.880;2022-09-21T13:45:45;1.23;;;0.77;;
16640;SDS011;8434;47.990;7.880;2022-09-21T13:48:11;1.43;;;0.60;;
16640;SDS011;8434;47.990;7.880;2022-09-21T13:51:05;0.90;;;0.67;;
16640;SDS011;8434;47.990;7.880;2022-09-21T13:53:52;1.93;;;0.83;;
16640;SDS011;8434;47.990;7.880;2022-09-21T13:56:39;1.27;;;0.50;;
16640;SDS011;8434;47.990;7.880;2022-09-21T13:59:25;1.07;;;0.53;;
16640;SDS011;8434;47.990;7.880;2022-09-21T14:02:22;0.63;;;0.60;;
16640;SDS011;8434;47.990;7.880;2022-09-21T14:05:16;0.53;;;0.53;;
16640;SDS011;8434;47.990;7.880;2022-09-21T14:08:04;1.40;;;0.60;;
16640;SDS011;8434;47.990;7.880;2022-09-21T14:10:51;0.70;;;0.60;;
16640;SDS011;8434;47.990;7.880;2022-09-21T14:13:38;1.70;;;0.60;;
16640;SDS011;8434;47.990;7.880;2022-09-21T14:16:25;1.57;;;1.17;;
16640;SDS011;8434;47.990;7.880;2022-09-21T14:22:34;0.80;;;0.57;;
16640;SDS011;8434;47.990;7.880;2022-09-21T14:25:27;1.03;;;0.60;;
16640;SDS011;8434;47.990;7.880;2022-09-21T14:28:14;2.83;;;0.60;;
16640;SDS011;8434;47.990;7.880;2022-09-21T14:31:02;1.53;;;1.43;;
16640;SDS011;8434;47.990;7.880;2022-09-21T14:33:47;1.10;;;0.70;;
16640;SDS011;8434;47.990;7.880;2022-09-21T14:36:35;1.90;;;0.60;;
16640;SDS011;8434;47.990;7.880;2022-09-21T14:39:25;1.20;;;0.70;;
16640;SDS011;8434;47.990;7.880;2022-09-21T14:42:13;2.57;;;0.70;;
16640;SDS011;8434;47.990;7.880;2022-09-21T14:45:04;2.50;;;0.57;;
16640;SDS011;8434;47.990;7.880;2022-09-21T14:48:00;1.97;;;0.60;;
16640;SDS011;8434;47.990;7.880;2022-09-21T14:50:50;0.90;;;0.50;;
16640;SDS011;8434;47.990;7.880;2022-09-21T14:56:59;0.60;;;0.50;;
16640;SDS011;8434;47.990;7.880;2022-09-21T14:59:52;1.00;;;0.60;;
16640;SDS011;8434;47.990;7.880;2022-09-21T15:02:42;2.70;;;0.77;;
16640;SDS011;8434;47.990;7.880;2022-09-21T15:05:28;2.33;;;0.70;;
16640;SDS011;8434;47.990;7.880;2022-09-21T15:08:29;0.67;;;0.60;;
16640;SDS011;8434;47.990;7.880;2022-09-21T15:11:41;1.00;;;0.60;;
16640;SDS011;8434;47.990;7.880;2022-09-21T15:14:29;2.10;;;0.60;;
16640;SDS011;8434;47.990;7.880;2022-09-21T15:17:21;1.00;;;0.67;;
16640;SDS011;8434;47.990;7.880;2022-09-21T15:20:15;0.60;;;0.60;;
16640;SDS011;8434;47.990;7.880;2022-09-21T15:23:00;1.03;;;0.50;;
16640;SDS011;8434;47.990;7.880;2022-09-21T15:25:52;2.10;;;0.63;;
16640;SDS011;8434;47.990;7.880;2022-09-21T15:28:41;0.90;;;0.57;;
16640;SDS011;8434;47.990;7.880;2022-09-21T15:31:31;1.53;;;0.60;;
16640;SDS011;8434;47.990;7.880;2022-09-21T15:34:16;1.07;;;0.70;;
16640;SDS011;8434;47.990;7.880;2022-09-21T15:37:06;0.70;;;0.50;;
16640;SDS011;8434;47.990;7.880;2022-09-21T15:39:57;0.80;;;0.50;;
16640;SDS011;8434;47.990;7.880;2022-09-21T15:42:56;0.90;;;0.57;;
16640;SDS011;8434;47.990;7.880;2022-09-21T15:45:45;2.00;;;0.80;;
16640;SDS011;8434;47.990;7.880;2022-09-21T15:48:31;1.43;;;0.50;;
16640;SDS011;8434;47.990;7.880;2022-09-21T15:51:17;0.90;;;0.70;;
16640;SDS011;8434;47.990;7.880;2022-09-21T15:54:10;1.00;;;0.60;;
16640;SDS011;8434;47.990;7.880;2022-09-21T15:57:02;1.63;;;0.53;;
16640;SDS011;8434;47.990;7.880;2022-09-21T15:59:50;0.83;;;0.63;;
16640;SDS011;8434;47.990;7.880;2022-09-21T16:02:36;1.43;;;0.57;;
16640;SDS011;8434;47.990;7.880;2022-09-21T16:05:22;1.37;;;0.70;;
16640;SDS011;8434;47.990;7.880;2022-09-21T16:08:25;1.03;;;0.60;;
16640;SDS011;8434;47.990;7.880;2022-09-21T16:11:16;1.03;;;0.60;;
16640;SDS011;8434;47.990;7.880;2022-09-21T16:14:05;1.47;;;0.60;;
16640;SDS011;8434;47.990;7.880;2022-09-21T16:17:20;1.83;;;0.50;;
16640;SDS011;8434;47.990;7.880;2022-09-21T16:20:13;1.43;;;0.87;;
16640;SDS011;8434;47.990;7.880;2022-09-21T16:23:02;0.47;;;0.43;;
16640;SDS011;8434;47.990;7.880;2022-09-21T16:25:51;2.30;;;0.70;;
16640;SDS011;8434;47.990;7.880;2022-09-21T16:28:39;0.63;;;0.60;;
16640;SDS011;8434;47.990;7.880;2022-09-21T16:31:26;1.80;;;0.63;;
16640;SDS011;8434;47.990;7.880;2022-09-21T16:34:19;1.20;;;0.50;;
16640;SDS011;8434;47.990;7.880;2022-09-21T16:37:20;0.97;;;0.50;;
16640;SDS011;8434;47.990;7.880;2022-09-21T16:40:06;2.73;;;0.73;;
16640;SDS011;8434;47.990;7.880;2022-09-21T16:42:52;0.60;;;0.50;;
16640;SDS011;8434;47.990;7.880;2022-09-21T16:45:39;0.93;;;0.70;;
16640;SDS011;8434;47.990;7.880;2022-09-21T16:48:24;0.67;;;0.60;;
16640;SDS011;8434;47.990;7.880;2022-09-21T16:51:09;0.67;;;0.63;;
16640;SDS011;8434;47.990;7.880;2022-09-21T16:53:54;0.40;;;0.40;;
16640;SDS011;8434;47.990;7.880;2022-09-21T16:56:40;0.80;;;0.60;;
16640;SDS011;8434;47.990;7.880;2022-09-21T16:59:29;0.50;;;0.40;;
16640;SDS011;8434;47.990;7.880;2022-09-21T17:02:17;0.90;;;0.60;;
16640;SDS011;8434;47.990;7.880;2022-09-21T17:05:02;1.27;;;0.60;;
16640;SDS011;8434;47.990;7.880;2022-09-21T17:07:48;0.90;;;0.57;;
16640;SDS011;8434;47.990;7.880;2022-09-21T17:10:35;0.73;;;0.60;;
16640;SDS011;8434;47.990;7.880;2022-09-21T17:13:21;1.13;;;0.50;;
16640;SDS011;8434;47.990;7.880;2022-09-21T17:16:06;2.30;;;0.70;;
16640;SDS011;8434;47.990;7.880;2022-09-21T17:18:53;0.83;;;0.50;;
16640;SDS011;8434;47.990;7.880;2022-09-21T17:21:38;2.43;;;0.87;;
16640;SDS011;8434;47.990;7.880;2022-09-21T17:24:23;1.10;;;0.50;;
16640;SDS011;8434;47.990;7.880;2022-09-21T17:27:08;1.50;;;0.60;;
16640;SDS011;8434;47.990;7.880;2022-09-21T17:29:54;0.67;;;0.50;;